createdAt,value
2018-02-15T00:00:26.232Z,44.48
2018-02-15T00:02:53.849Z,44.98
2018-02-15T00:05:21.412Z,44.99
2018-02-15T00:07:49.049Z,44.75
2018-02-15T00:10:16.950Z,44.40
2018-02-15T00:12:44.690Z,44.45
2018-02-15T00:15:12.205Z,44.52
2018-02-15T00:17:39.753Z,44.16
2018-02-15T00:20:07.266Z,44.28
2018-02-15T00:22:35.369Z,44.42
2018-02-15T00:25:02.937Z,44.65
2018-02-15T00:27:30.478Z,44.93
2018-02-15T00:29:58.953Z,44.71
2018-02-15T00:32:26.482Z,44.95
2018-02-15T00:34:54.193Z,45.11
2018-02-15T00:37:21.706Z,45.31
2018-02-15T00:39:50.764Z,45.54
2018-02-15T00:42:18.427Z,45.88
2018-02-15T00:44:45.946Z,45.91
2018-02-15T00:47:13.766Z,45.62
2018-02-15T00:49:41.350Z,45.73
2018-02-15T00:52:08.878Z,46.20
2018-02-15T00:54:36.425Z,46.19
2018-02-15T00:57:03.934Z,45.69
2018-02-15T00:59:31.842Z,45.57
2018-02-15T01:01:59.362Z,45.60
2018-02-15T01:04:26.885Z,45.94
2018-02-15T01:06:54.437Z,45.72
2018-02-15T01:09:21.990Z,45.98
2018-02-15T01:11:49.547Z,45.96
2018-02-15T01:14:17.292Z,46.09
2018-02-15T01:16:45.093Z,45.97
2018-02-15T01:19:12.793Z,45.91
2018-02-15T01:21:40.678Z,46.23
2018-02-15T01:24:08.265Z,46.14
2018-02-15T01:26:36.146Z,46.40
2018-02-15T01:29:03.817Z,45.99
2018-02-15T01:31:31.569Z,46.41
2018-02-15T01:33:59.346Z,46.22
2018-02-15T01:36:27.273Z,46.32
2018-02-15T01:38:55.077Z,45.43
2018-02-15T01:41:22.934Z,45.96
2018-02-15T01:43:50.826Z,45.89
2018-02-15T01:46:18.573Z,45.54
2018-02-15T01:48:46.436Z,45.36
2018-02-15T01:51:13.950Z,45.22
2018-02-15T01:53:41.473Z,45.80
2018-02-15T01:56:09.019Z,45.61
2018-02-15T01:58:36.610Z,45.28
2018-02-15T02:01:04.397Z,44.86
2018-02-15T02:03:31.922Z,45.46
2018-02-15T02:05:59.450Z,45.30
2018-02-15T02:08:26.994Z,45.23
2018-02-15T02:10:54.514Z,45.32
2018-02-15T02:13:22.243Z,45.21
2018-02-15T02:15:49.794Z,45.25
2018-02-15T02:18:17.325Z,45.17
2018-02-15T02:20:44.884Z,44.68
2018-02-15T02:23:12.402Z,44.99
2018-02-15T02:25:40.199Z,44.51
2018-02-15T02:28:07.775Z,44.21
2018-02-15T02:30:35.300Z,44.05
2018-02-15T02:33:02.854Z,43.75
2018-02-15T02:35:30.387Z,43.97
2018-02-15T02:37:58.294Z,43.69
2018-02-15T02:40:25.810Z,43.51
2018-02-15T02:42:53.337Z,43.36
2018-02-15T02:45:20.931Z,42.85
2018-02-15T02:47:48.455Z,42.75
2018-02-15T02:50:16.226Z,42.95
2018-02-15T02:52:43.745Z,42.86
2018-02-15T02:55:11.271Z,42.96
2018-02-15T02:57:38.814Z,43.30
2018-02-15T03:00:06.334Z,43.07
2018-02-15T03:02:33.977Z,42.62
2018-02-15T03:05:01.493Z,42.75
2018-02-15T03:07:29.026Z,42.44
2018-02-15T03:10:02.017Z,42.57
2018-02-15T03:12:29.538Z,43.10
2018-02-15T03:14:57.155Z,43.25
2018-02-15T03:17:24.674Z,43.37
2018-02-15T03:19:52.189Z,43.05
2018-02-15T03:22:19.730Z,43.86
2018-02-15T03:24:47.248Z,43.57
2018-02-15T03:27:14.793Z,43.22
2018-02-15T03:29:42.305Z,43.13
2018-02-15T03:32:09.823Z,43.07
2018-02-15T03:34:37.403Z,42.80
2018-02-15T03:37:04.933Z,42.74
2018-02-15T03:39:32.681Z,42.75
2018-02-15T03:42:00.202Z,42.47
2018-02-15T03:44:27.713Z,42.25
2018-02-15T03:46:55.256Z,42.04
2018-02-15T03:49:22.771Z,42.04
2018-02-15T03:51:50.311Z,43.22
2018-02-15T03:54:17.844Z,42.84
2018-02-15T03:56:45.368Z,42.42
2018-02-15T03:59:12.909Z,42.20
2018-02-15T04:01:40.434Z,42.71
2018-02-15T04:04:08.056Z,42.56
2018-02-15T04:06:35.569Z,42.37
2018-02-15T04:09:03.102Z,42.37
2018-02-15T04:11:30.640Z,42.54
2018-02-15T04:13:58.157Z,42.86
2018-02-15T04:16:26.438Z,42.23
2018-02-15T04:18:54.027Z,42.14
2018-02-15T04:21:21.615Z,42.04
2018-02-15T04:23:49.081Z,42.25
2018-02-15T05:00:26.141Z,44.64
2018-02-15T05:02:53.655Z,44.69
2018-02-15T05:05:21.227Z,44.44
2018-02-15T05:07:48.770Z,44.47
2018-02-15T05:10:16.295Z,44.68
2018-02-15T05:12:43.822Z,44.25
2018-02-15T05:15:11.549Z,44.52
2018-02-15T05:17:39.067Z,44.11
2018-02-15T05:20:06.592Z,43.93
2018-02-15T05:22:34.149Z,44.07
2018-02-15T05:25:01.697Z,43.93
2018-02-15T05:27:30.401Z,44.00
2018-02-15T05:29:58.267Z,43.53
2018-02-15T05:32:26.455Z,44.42
2018-02-15T05:34:54.334Z,44.43
2018-02-15T06:51:51.157Z,41.56
2018-02-15T06:54:18.704Z,41.44
2018-02-15T06:56:46.254Z,42.05
2018-02-15T06:59:13.765Z,41.54
2018-02-15T07:01:41.277Z,41.09
2018-02-15T07:04:08.892Z,41.31
2018-02-15T07:06:36.417Z,41.41
2018-02-15T07:09:04.329Z,41.33
2018-02-15T07:11:31.894Z,41.49
2018-02-15T07:13:59.414Z,41.73
2018-02-15T07:16:26.976Z,41.25
2018-02-15T07:18:54.494Z,41.41
2018-02-15T07:21:22.042Z,41.11
2018-02-15T07:23:49.567Z,40.92
2018-02-15T07:26:17.087Z,40.75
2018-02-15T07:28:44.622Z,40.51
2018-02-15T07:31:12.142Z,40.52
2018-02-15T07:33:39.694Z,40.96
2018-02-15T07:36:07.801Z,41.21
2018-02-15T07:38:35.547Z,42.80
2018-02-15T07:41:03.086Z,44.20
2018-02-15T07:43:31.929Z,46.05
2018-02-15T07:45:59.774Z,47.32
2018-02-15T07:48:27.307Z,48.71
2018-02-15T07:50:55.761Z,50.42
2018-02-15T07:53:23.488Z,50.68
2018-02-15T07:55:51.533Z,50.93
2018-02-15T07:58:20.014Z,52.97
2018-02-15T08:00:49.764Z,54.25
2018-02-15T08:03:18.193Z,55.30
2018-02-15T08:05:46.633Z,55.46
2018-02-15T08:08:14.178Z,56.27
2018-02-15T08:10:41.731Z,55.95
2018-02-15T08:13:10.389Z,55.92
2018-02-15T08:15:37.926Z,56.55
2018-02-15T08:18:05.475Z,56.69
2018-02-15T08:20:33.031Z,56.69
2018-02-15T08:23:00.737Z,57.39
2018-02-15T08:25:28.318Z,57.81
2018-02-15T08:27:55.980Z,58.71
2018-02-15T08:30:23.917Z,58.85
2018-02-15T08:32:51.684Z,59.17
2018-02-15T08:35:19.210Z,58.38
2018-02-15T08:37:47.845Z,58.29
2018-02-15T08:40:15.366Z,57.71
2018-02-15T08:42:42.904Z,58.59
2018-02-15T08:45:10.450Z,58.82
2018-02-15T08:47:38.097Z,60.73
2018-02-15T08:50:06.768Z,61.23
2018-02-15T08:52:34.411Z,60.80
2018-02-15T08:55:02.784Z,60.83
2018-02-15T08:57:30.333Z,61.19
2018-02-15T08:59:57.914Z,62.09
2018-02-15T09:02:25.469Z,60.88
2018-02-15T09:04:52.988Z,60.84
2018-02-15T09:07:20.504Z,61.43
2018-02-15T09:09:48.059Z,62.49
2018-02-15T09:12:15.613Z,63.32
2018-02-15T09:14:43.162Z,63.55
2018-02-15T09:17:11.667Z,63.30
2018-02-15T09:19:39.220Z,62.57
2018-02-15T09:22:06.772Z,63.29
2018-02-15T09:24:34.295Z,61.94
2018-02-15T09:27:01.879Z,61.21
2018-02-15T09:29:29.389Z,60.89
2018-02-15T09:31:57.014Z,60.98
2018-02-15T09:34:24.579Z,60.12
2018-02-15T09:36:52.099Z,61.04
2018-02-15T09:39:19.794Z,61.14
2018-02-15T09:41:47.456Z,61.55
2018-02-15T09:44:15.007Z,60.78
2018-02-15T09:46:42.658Z,61.25
2018-02-15T09:49:10.185Z,62.16
2018-02-15T09:51:37.795Z,61.84
2018-02-15T09:54:05.560Z,61.07
2018-02-15T09:56:33.196Z,61.45
2018-02-15T09:59:00.884Z,61.96
2018-02-15T10:01:28.835Z,62.39
2018-02-15T10:03:57.965Z,60.97
2018-02-15T10:06:26.018Z,62.33
2018-02-15T10:08:53.551Z,62.60
2018-02-15T10:11:21.356Z,61.23
2018-02-15T10:13:49.573Z,60.54
2018-02-15T10:16:17.584Z,60.19
2018-02-15T10:18:45.329Z,60.47
2018-02-15T10:21:13.534Z,61.00
2018-02-15T10:23:41.182Z,61.58
2018-02-15T10:26:08.957Z,60.80
2018-02-15T10:28:36.985Z,60.88
2018-02-15T10:31:04.914Z,60.56
2018-02-15T10:33:33.440Z,61.34
2018-02-15T10:36:01.351Z,62.17
2018-02-15T10:38:29.020Z,62.61
2018-02-15T10:40:57.087Z,62.52
2018-02-15T10:43:25.164Z,62.62
2018-02-15T10:45:53.032Z,62.34
2018-02-15T10:48:21.304Z,63.17
2018-02-15T10:50:49.417Z,63.93
2018-02-15T10:53:17.390Z,63.92
2018-02-15T10:55:45.093Z,64.64
2018-02-15T10:58:12.955Z,64.87
2018-02-15T11:00:46.194Z,65.19
2018-02-15T11:03:19.647Z,65.99
2018-02-15T11:05:47.298Z,65.99
2018-02-15T11:08:15.173Z,65.31
2018-02-15T11:10:43.345Z,65.99
2018-02-15T11:13:11.090Z,66.82
2018-02-15T11:15:38.874Z,66.75
2018-02-15T11:18:06.740Z,66.62
2018-02-15T11:20:34.403Z,67.17
2018-02-15T11:23:02.153Z,67.02
2018-02-15T11:25:30.089Z,66.96
2018-02-15T11:27:57.899Z,67.00
2018-02-15T11:30:25.778Z,66.72
2018-02-15T11:32:53.390Z,68.03
2018-02-15T11:35:21.436Z,68.23
2018-02-15T11:37:49.312Z,68.37
2018-02-15T11:40:17.228Z,67.71
2018-02-15T11:42:45.632Z,68.66
2018-02-15T11:45:13.802Z,69.53
2018-02-15T11:47:42.029Z,69.12
2018-02-15T11:50:10.051Z,68.88
2018-02-15T11:52:37.897Z,68.26
2018-02-15T11:55:05.864Z,69.55
2018-02-15T11:57:33.833Z,69.06
2018-02-15T12:00:01.495Z,69.47
2018-02-15T12:02:30.081Z,69.28
2018-02-15T12:04:57.857Z,69.08
2018-02-15T12:07:25.710Z,68.45
2018-02-15T12:09:53.286Z,69.19
2018-02-15T12:12:21.055Z,68.74
2018-02-15T12:14:48.801Z,68.11
2018-02-15T12:17:16.828Z,67.84
2018-02-15T12:19:44.853Z,68.36
2018-02-15T12:22:13.123Z,66.98
2018-02-15T12:24:41.821Z,67.08
2018-02-15T12:27:09.655Z,67.61
2018-02-15T12:29:37.866Z,68.21
2018-02-15T12:32:05.503Z,66.74
2018-02-15T12:34:33.060Z,68.31
2018-02-15T12:37:00.925Z,67.57
2018-02-15T12:39:28.665Z,66.64
2018-02-15T12:41:57.510Z,66.20
2018-02-15T12:44:25.241Z,65.85
2018-02-15T12:46:52.904Z,66.58
2018-02-15T12:49:21.068Z,66.18
2018-02-15T12:51:49.455Z,65.75
2018-02-15T12:54:17.019Z,65.78
2018-02-15T12:56:45.426Z,66.25
2018-02-15T12:59:12.954Z,66.03
2018-02-15T13:01:40.716Z,66.72
2018-02-15T13:04:08.459Z,66.72
2018-02-15T13:06:36.143Z,66.69
2018-02-15T13:09:03.928Z,66.69
2018-02-15T13:11:32.182Z,66.69
2018-02-15T13:14:00.252Z,66.61
2018-02-15T13:16:39.614Z,66.56
2018-02-15T13:22:26.420Z,67.32
2018-02-15T13:24:54.593Z,67.55
2018-02-15T13:27:34.751Z,67.66
2018-02-15T13:30:03.026Z,68.12
2018-02-15T13:32:30.891Z,68.02
2018-02-15T13:34:58.723Z,68.08
2018-02-15T13:37:26.614Z,67.79
2018-02-15T13:39:54.977Z,67.63
2018-02-15T13:42:22.844Z,68.19
2018-02-15T13:44:50.634Z,67.95
2018-02-15T13:47:18.296Z,67.65
2018-02-15T13:49:45.872Z,68.27
2018-02-15T13:52:13.417Z,67.95
2018-02-15T13:54:41.419Z,66.85
2018-02-15T13:57:09.785Z,66.50
2018-02-15T13:59:37.331Z,65.87
2018-02-15T14:02:04.888Z,65.75
2018-02-15T14:04:32.410Z,64.96
2018-02-15T14:07:00.307Z,65.12
2018-02-15T14:09:27.884Z,65.29
2018-02-15T14:11:55.506Z,64.67
2018-02-15T14:14:23.187Z,64.59
2018-02-15T14:16:51.054Z,64.17
2018-02-15T14:19:18.897Z,64.67
2018-02-15T14:21:46.430Z,64.15
2018-02-15T14:24:14.134Z,65.08
2018-02-15T14:26:42.049Z,64.53
2018-02-15T14:29:09.768Z,64.72
2018-02-15T14:31:37.739Z,63.87
2018-02-15T14:34:05.392Z,64.14
2018-02-15T14:36:33.038Z,63.61
2018-02-15T14:39:00.797Z,63.82
2018-02-15T14:41:28.386Z,63.16
2018-02-15T14:43:56.451Z,64.50
2018-02-15T14:46:24.221Z,64.16
2018-02-15T14:48:52.202Z,64.40
2018-02-15T14:51:19.955Z,63.65
2018-02-15T14:53:47.734Z,65.45
2018-02-15T14:56:15.795Z,65.42
2018-02-15T14:58:43.458Z,65.88
2018-02-15T15:01:11.204Z,65.93
2018-02-15T15:03:38.930Z,66.36
2018-02-15T15:06:06.644Z,65.68
2018-02-15T15:08:35.021Z,66.35
2018-02-15T15:11:02.886Z,66.12
2018-02-15T15:13:30.753Z,66.17
2018-02-15T15:15:58.723Z,66.13
2018-02-15T15:18:27.100Z,65.96
2018-02-15T15:20:55.479Z,67.86
2018-02-15T15:23:23.326Z,67.89
2018-02-15T15:25:51.213Z,67.78
2018-02-15T15:28:19.103Z,67.37
2018-02-15T15:30:47.151Z,67.19
2018-02-15T15:33:15.323Z,68.65
2018-02-15T15:35:43.684Z,68.56
2018-02-15T15:38:12.775Z,68.06
2018-02-15T15:40:41.697Z,68.11
2018-02-15T15:43:09.508Z,67.94
2018-02-15T15:45:38.035Z,67.36
2018-02-15T15:48:06.010Z,67.32
2018-02-15T15:50:33.870Z,67.24
2018-02-15T15:53:02.351Z,67.23
2018-02-15T15:55:30.422Z,67.25
2018-02-15T15:57:58.391Z,67.04
2018-02-15T16:00:26.399Z,68.10
2018-02-15T16:02:54.534Z,66.96
2018-02-15T16:05:22.503Z,66.93
2018-02-15T16:07:52.218Z,67.23
2018-02-15T16:10:20.246Z,66.98
2018-02-15T16:12:48.185Z,67.63
2018-02-15T16:15:16.138Z,68.24
2018-02-15T16:17:44.089Z,67.97
2018-02-15T16:20:12.465Z,67.08
2018-02-15T16:22:41.413Z,67.75
2018-02-15T16:25:09.843Z,67.28
2018-02-15T16:27:37.806Z,68.49
2018-02-15T16:30:05.777Z,67.96
2018-02-15T16:32:34.800Z,68.01
2018-02-15T16:35:03.370Z,69.02
2018-02-15T16:37:31.301Z,69.13
2018-02-15T16:39:59.186Z,69.54
2018-02-15T16:42:27.155Z,70.06
2018-02-15T16:44:55.230Z,70.08
2018-02-15T16:47:23.640Z,70.13
2018-02-15T16:49:52.681Z,70.95
2018-02-15T16:52:20.772Z,70.22
2018-02-15T16:54:49.858Z,70.11
2018-02-15T16:57:18.245Z,71.00
2018-02-15T16:59:46.828Z,69.94
2018-02-15T17:02:17.037Z,70.10
2018-02-15T17:04:45.430Z,70.84
2018-02-15T17:07:13.369Z,71.86
2018-02-15T17:09:41.782Z,71.42
2018-02-15T17:12:10.256Z,71.91
2018-02-15T17:14:39.967Z,71.53
2018-02-15T17:17:07.914Z,70.74
2018-02-15T17:19:36.522Z,70.01
2018-02-15T17:22:04.493Z,71.03
2018-02-15T17:24:32.354Z,70.63
2018-02-15T17:27:01.229Z,70.32
2018-02-15T17:29:29.397Z,70.74
2018-02-15T17:31:58.104Z,71.01
2018-02-15T17:34:26.030Z,71.09
2018-02-15T17:36:53.938Z,71.99
2018-02-15T17:39:22.513Z,72.11
2018-02-15T17:41:50.390Z,72.19
2018-02-15T17:44:19.345Z,72.05
2018-02-15T17:46:47.884Z,72.05
2018-02-15T17:49:15.858Z,71.28
2018-02-15T17:51:43.800Z,71.37
2018-02-15T17:54:11.770Z,71.69
2018-02-15T17:56:40.252Z,72.33
2018-02-15T17:59:08.123Z,71.98
2018-02-15T18:01:36.087Z,71.86
2018-02-15T18:04:04.055Z,72.16
2018-02-15T18:06:32.128Z,72.41
2018-02-15T18:09:00.504Z,72.03
2018-02-15T18:11:28.853Z,71.77
2018-02-15T18:13:56.747Z,72.20
2018-02-15T18:16:24.760Z,71.47
2018-02-15T18:18:52.789Z,71.94
2018-02-15T18:21:20.920Z,72.00
2018-02-15T18:23:49.366Z,72.38
2018-02-15T18:26:18.231Z,72.13
2018-02-15T18:28:47.475Z,71.22
2018-02-15T18:31:16.217Z,70.04
2018-02-15T18:33:45.320Z,70.06
2018-02-15T18:36:13.179Z,71.02
2018-02-15T18:38:40.963Z,69.46
2018-02-15T18:41:08.832Z,69.90
2018-02-15T18:43:37.635Z,71.06
2018-02-15T18:46:05.990Z,70.66
2018-02-15T18:48:35.496Z,70.05
2018-02-15T18:51:03.451Z,69.47
2018-02-15T18:53:31.626Z,68.41
2018-02-15T18:55:59.882Z,69.56
2018-02-15T18:58:28.158Z,69.42
2018-02-15T19:00:56.451Z,71.03
2018-02-15T19:03:24.355Z,72.00
2018-02-15T19:05:52.390Z,71.74
2018-02-15T19:08:20.257Z,71.68
2018-02-15T19:10:48.687Z,72.24
2018-02-15T19:13:17.017Z,72.04
2018-02-15T19:15:45.909Z,71.93
2018-02-15T19:18:13.874Z,71.68
2018-02-15T19:20:43.069Z,71.42
2018-02-15T19:23:12.069Z,71.71
2018-02-15T19:25:40.032Z,71.90
2018-02-15T19:28:08.002Z,72.69
2018-02-15T19:30:35.969Z,71.72
2018-02-15T19:33:04.454Z,72.28
2018-02-15T19:35:32.732Z,72.18
2018-02-15T19:38:00.594Z,72.27
2018-02-15T19:40:29.616Z,71.69
2018-02-15T19:42:57.761Z,71.13
2018-02-15T19:45:26.243Z,72.26
2018-02-15T19:47:54.213Z,71.95
2018-02-15T19:50:22.489Z,72.54
2018-02-15T19:52:50.438Z,72.02
2018-02-15T19:55:18.427Z,71.94
2018-02-15T19:57:46.942Z,71.65
2018-02-15T20:00:15.185Z,71.29
2018-02-15T20:02:44.071Z,71.56
2018-02-15T20:05:12.554Z,70.20
2018-02-15T20:07:44.720Z,71.22
2018-02-15T20:10:12.692Z,71.29
2018-02-15T20:12:41.067Z,71.38
2018-02-15T20:15:08.912Z,71.31
2018-02-15T20:17:36.901Z,71.67
2018-02-15T20:20:10.710Z,72.90
2018-02-15T20:22:38.757Z,71.52
2018-02-15T20:25:07.028Z,71.28
